Time;durP1;ratioP1;P1;durP2;ratioP2;P2;SDS_P1;SDS_P2;PMS_P1;PMS_P2;Temp;Humidity;BMP_temperature;BMP_pressure;BME280_temperature;BME280_humidity;BME280_pressure;Samples;Min_cycle;Max_cycle;Signal;HPM_P1;HPM_P2
2023/05/26 00:01:47;;;;;;;6.63;5.47;;;;;;;;;;5065159;28;20243;-68
2023/05/26 00:04:17;;;;;;;6.38;5.78;;;;;;;;;;5064781;28;20204;-68
2023/05/26 00:06:43;;;;;;;11.13;5.28;;;;;;;;;;5064860;28;20474;-68
2023/05/26 00:09:09;;;;;;;7.28;4.97;;;;;;;;;;5064448;28;20239;-68
2023/05/26 00:11:36;;;;;;;6.32;5.82;;;;;;;;;;5064742;28;20225;-68
2023/05/26 00:14:02;;;;;;;5.18;4.75;;;;;;;;;;5064444;28;20525;-68
2023/05/26 00:16:29;;;;;;;8.55;5.70;;;;;;;;;;5064555;28;20243;-68
2023/05/26 00:18:56;;;;;;;6.80;5.38;;;;;;;;;;5064940;28;20197;-68
2023/05/26 00:21:22;;;;;;;6.10;5.30;;;;;;;;;;5064437;28;20194;-68
2023/05/26 00:23:48;;;;;;;5.88;5.35;;;;;;;;;;5064170;28;20215;-68
2023/05/26 00:26:14;;;;;;;6.32;5.25;;;;;;;;;;5064610;28;20201;-68
2023/05/26 00:28:41;;;;;;;8.35;5.60;;;;;;;;;;5064708;28;20225;-68
2023/05/26 00:31:07;;;;;;;6.32;5.72;;;;;;;;;;5064380;28;20343;-68
2023/05/26 00:33:34;;;;;;;5.93;5.32;;;;;;;;;;5063176;28;20201;-68
2023/05/26 00:36:01;;;;;;;8.50;5.25;;;;;;;;;;5064159;28;20197;-68
2023/05/26 00:38:27;;;;;;;6.45;5.32;;;;;;;;;;5064184;28;20216;-68
2023/05/26 00:40:53;;;;;;;6.85;5.38;;;;;;;;;;5064414;28;20193;-68
2023/05/26 00:43:19;;;;;;;9.20;5.75;;;;;;;;;;5064104;28;20227;-68
2023/05/26 00:45:46;;;;;;;8.38;6.30;;;;;;;;;;5064107;28;20197;-69
2023/05/26 00:48:12;;;;;;;5.88;5.28;;;;;;;;;;5064043;28;20219;-68
2023/05/26 00:50:40;;;;;;;6.05;5.55;;;;;;;;;;5063939;28;20220;-68
2023/05/26 00:53:07;;;;;;;6.55;5.88;;;;;;;;;;5063906;28;20197;-68
2023/05/26 00:55:34;;;;;;;6.70;5.35;;;;;;;;;;5064105;28;20197;-68
2023/05/26 00:58:00;;;;;;;7.53;5.55;;;;;;;;;;5064073;28;20206;-68
2023/05/26 01:00:27;;;;;;;6.15;5.65;;;;;;;;;;5063935;28;20200;-68
2023/05/26 01:02:55;;;;;;;6.15;5.55;;;;;;;;;;5063715;28;20200;-68
2023/05/26 01:05:22;;;;;;;6.78;6.18;;;;;;;;;;5063480;28;20497;-68
2023/05/26 01:07:49;;;;;;;6.28;5.68;;;;;;;;;;5063953;28;20368;-68
2023/05/26 01:10:16;;;;;;;8.00;5.90;;;;;;;;;;5063715;28;20232;-68
2023/05/26 01:12:45;;;;;;;6.47;5.50;;;;;;;;;;5063393;28;20211;-68
2023/05/26 01:15:12;;;;;;;6.28;5.68;;;;;;;;;;5063484;28;20212;-68
2023/05/26 01:17:41;;;;;;;6.43;5.50;;;;;;;;;;5063683;28;20197;-68
2023/05/26 01:20:14;;;;;;;6.13;5.57;;;;;;;;;;5063668;28;20212;-68
2023/05/26 01:22:52;;;;;;;6.82;5.53;;;;;;;;;;5063632;28;20197;-68
2023/05/26 01:25:24;;;;;;;7.93;5.85;;;;;;;;;;5063105;28;20197;-68
2023/05/26 01:28:02;;;;;;;5.90;5.38;;;;;;;;;;5063178;28;20532;-68
2023/05/26 01:30:29;;;;;;;6.25;5.70;;;;;;;;;;5061288;28;20223;-68
2023/05/26 01:32:56;;;;;;;6.88;5.97;;;;;;;;;;5059774;28;20204;-68
2023/05/26 01:35:22;;;;;;;6.10;5.50;;;;;;;;;;5060385;28;20201;-68
2023/05/26 01:37:48;;;;;;;6.05;5.45;;;;;;;;;;5060197;28;20197;-68
2023/05/26 01:40:15;;;;;;;10.18;5.40;;;;;;;;;;5061626;28;20276;-68
2023/05/26 01:42:43;;;;;;;6.00;5.30;;;;;;;;;;5062974;28;20197;-68
2023/05/26 01:48:15;;;;;;;7.00;5.57;;;;;;;;;;5062482;28;20199;-68
2023/05/26 01:50:44;;;;;;;5.90;5.40;;;;;;;;;;5062954;28;20221;-68
2023/05/26 01:53:12;;;;;;;5.82;5.22;;;;;;;;;;5062678;28;20220;-68
2023/05/26 01:55:38;;;;;;;6.53;5.60;;;;;;;;;;5062800;28;20235;-68
2023/05/26 01:58:06;;;;;;;5.85;5.20;;;;;;;;;;5062700;28;20205;-68
2023/05/26 02:00:32;;;;;;;6.72;4.88;;;;;;;;;;5062510;28;20239;-68
2023/05/26 02:02:58;;;;;;;7.63;5.45;;;;;;;;;;5062589;28;20205;-68
2023/05/26 02:05:26;;;;;;;6.70;5.57;;;;;;;;;;5062802;28;20560;-68
2023/05/26 02:07:52;;;;;;;6.25;5.60;;;;;;;;;;5062620;28;20197;-68
2023/05/26 02:10:19;;;;;;;6.13;5.25;;;;;;;;;;5062467;28;20289;-68
2023/05/26 02:12:45;;;;;;;6.18;5.40;;;;;;;;;;5062308;28;20236;-68
2023/05/26 02:15:11;;;;;;;7.72;5.32;;;;;;;;;;5062193;28;20381;-68
2023/05/26 02:17:37;;;;;;;10.02;5.88;;;;;;;;;;5062550;28;20234;-68
2023/05/26 02:20:04;;;;;;;5.68;5.15;;;;;;;;;;5062412;28;20239;-68
2023/05/26 02:22:32;;;;;;;12.30;5.80;;;;;;;;;;5062440;28;20200;-68
2023/05/26 02:24:58;;;;;;;5.70;5.13;;;;;;;;;;5062204;28;20368;-68
2023/05/26 02:27:24;;;;;;;6.15;5.40;;;;;;;;;;5062103;28;20217;-68
2023/05/26 02:29:51;;;;;;;5.90;5.40;;;;;;;;;;5062058;28;20196;-68
2023/05/26 02:32:17;;;;;;;6.40;5.68;;;;;;;;;;5062478;28;20201;-68
2023/05/26 02:34:43;;;;;;;6.47;5.60;;;;;;;;;;5062092;28;20493;-68
2023/05/26 02:37:09;;;;;;;7.13;5.50;;;;;;;;;;5062145;28;20197;-68
2023/05/26 02:39:37;;;;;;;10.38;5.82;;;;;;;;;;5062152;28;20427;-68
2023/05/26 02:42:03;;;;;;;6.45;5.38;;;;;;;;;;5061963;28;20495;-68
2023/05/26 02:44:29;;;;;;;7.97;5.82;;;;;;;;;;5061664;28;20235;-68
2023/05/26 02:46:56;;;;;;;7.03;6.32;;;;;;;;;;5061813;28;20235;-68
2023/05/26 02:49:23;;;;;;;6.43;5.78;;;;;;;;;;5062057;28;20311;-68
2023/05/26 02:51:49;;;;;;;7.43;6.05;;;;;;;;;;5061825;28;20225;-68
2023/05/26 02:54:15;;;;;;;6.07;5.55;;;;;;;;;;5061867;28;20200;-68
2023/05/26 02:56:43;;;;;;;6.13;5.60;;;;;;;;;;5062140;28;20197;-68
2023/05/26 02:59:09;;;;;;;6.10;5.47;;;;;;;;;;5066063;28;20423;-68
2023/05/26 03:01:36;;;;;;;6.47;5.88;;;;;;;;;;5066149;28;20200;-68
2023/05/26 03:04:02;;;;;;;6.45;5.32;;;;;;;;;;5065912;28;20235;-68
2023/05/26 03:06:28;;;;;;;6.80;6.07;;;;;;;;;;5066034;28;20513;-68
2023/05/26 03:08:55;;;;;;;6.32;5.50;;;;;;;;;;5065875;28;20205;-68
2023/05/26 03:11:21;;;;;;;7.03;5.82;;;;;;;;;;5066107;28;20224;-68
2023/05/26 03:13:49;;;;;;;6.47;5.85;;;;;;;;;;5065419;28;20276;-68
2023/05/26 03:16:15;;;;;;;7.13;6.22;;;;;;;;;;5065815;28;20539;-68
2023/05/26 03:18:41;;;;;;;8.63;6.13;;;;;;;;;;5065752;28;20501;-68
2023/05/26 03:21:09;;;;;;;6.60;5.93;;;;;;;;;;5065711;28;20546;-68
2023/05/26 03:23:35;;;;;;;9.68;6.68;;;;;;;;;;5065359;28;20235;-69
2023/05/26 03:26:01;;;;;;;8.85;7.32;;;;;;;;;;5065522;28;20200;-69
2023/05/26 03:28:28;;;;;;;8.38;6.30;;;;;;;;;;5065679;28;20224;-69
2023/05/26 03:30:57;;;;;;;8.38;6.25;;;;;;;;;;5065475;28;20228;-69
2023/05/26 03:33:24;;;;;;;6.63;6.03;;;;;;;;;;5065404;28;20197;-69
2023/05/26 03:35:50;;;;;;;8.27;6.90;;;;;;;;;;5065404;28;20201;-69
2023/05/26 03:38:16;;;;;;;7.57;6.43;;;;;;;;;;5065251;28;20427;-68
2023/05/26 03:40:42;;;;;;;10.25;6.75;;;;;;;;;;5065088;28;20231;-68
2023/05/26 03:43:09;;;;;;;10.30;6.25;;;;;;;;;;5065174;28;20197;-68
2023/05/26 03:45:35;;;;;;;9.52;6.50;;;;;;;;;;5065430;28;20201;-68
2023/05/26 03:48:03;;;;;;;7.88;6.55;;;;;;;;;;5065089;28;20197;-68
2023/05/26 03:50:29;;;;;;;8.05;6.03;;;;;;;;;;5064869;28;20261;-68
2023/05/26 03:52:55;;;;;;;9.57;6.40;;;;;;;;;;5064890;28;20201;-68
2023/05/26 03:55:22;;;;;;;8.82;6.70;;;;;;;;;;5064800;28;20235;-68
2023/05/26 03:57:48;;;;;;;7.50;6.57;;;;;;;;;;5065029;28;20228;-68
2023/05/26 04:00:16;;;;;;;6.55;5.95;;;;;;;;;;5064950;28;20251;-68
2023/05/26 04:02:43;;;;;;;9.95;6.00;;;;;;;;;;5064784;28;20236;-68
2023/05/26 04:05:11;;;;;;;6.93;6.20;;;;;;;;;;5064814;28;20231;-68
2023/05/26 04:07:37;;;;;;;9.32;6.57;;;;;;;;;;5064976;28;20201;-68
2023/05/26 04:10:05;;;;;;;8.63;7.10;;;;;;;;;;5064706;28;20189;-68
2023/05/26 04:12:31;;;;;;;6.32;5.72;;;;;;;;;;5064848;28;20221;-68
2023/05/26 04:14:57;;;;;;;8.88;6.53;;;;;;;;;;5064560;28;20553;-68
2023/05/26 04:17:23;;;;;;;7.43;6.72;;;;;;;;;;5064602;28;20197;-69
2023/05/26 04:19:50;;;;;;;8.40;7.05;;;;;;;;;;5064493;28;20201;-69
2023/05/26 04:22:18;;;;;;;8.38;6.75;;;;;;;;;;5064415;28;20239;-69
2023/05/26 04:24:44;;;;;;;7.55;6.85;;;;;;;;;;5064396;28;20228;-69
2023/05/26 04:27:10;;;;;;;9.40;7.07;;;;;;;;;;5064144;28;20286;-69
2023/05/26 04:29:38;;;;;;;9.00;6.47;;;;;;;;;;5064522;28;20223;-69
2023/05/26 04:32:05;;;;;;;11.20;7.00;;;;;;;;;;5064209;28;20287;-69
2023/05/26 04:34:31;;;;;;;10.00;6.85;;;;;;;;;;5064072;28;20558;-69
2023/05/26 04:37:03;;;;;;;6.80;6.20;;;;;;;;;;5064139;28;20205;-69
2023/05/26 04:39:31;;;;;;;10.23;6.38;;;;;;;;;;5064353;28;20272;-69
2023/05/26 04:41:58;;;;;;;8.50;6.00;;;;;;;;;;5063965;28;20200;-69
2023/05/26 04:44:25;;;;;;;11.65;6.93;;;;;;;;;;5063914;28;20197;-69
2023/05/26 04:46:53;;;;;;;9.40;6.93;;;;;;;;;;5063984;28;20197;-69
2023/05/26 04:49:22;;;;;;;7.80;6.82;;;;;;;;;;5063808;28;20339;-69
2023/05/26 04:51:48;;;;;;;7.70;6.38;;;;;;;;;;5063763;28;20227;-69
2023/05/26 04:54:16;;;;;;;10.13;6.85;;;;;;;;;;5063840;28;20201;-69
2023/05/26 04:56:43;;;;;;;8.13;6.60;;;;;;;;;;5063774;28;20251;-69
2023/05/26 04:59:11;;;;;;;11.48;7.47;;;;;;;;;;5063654;28;20201;-69
2023/05/26 05:01:37;;;;;;;8.30;7.53;;;;;;;;;;5063601;28;20238;-70
2023/05/26 05:04:04;;;;;;;9.80;7.35;;;;;;;;;;5063406;28;20235;-70
2023/05/26 05:06:30;;;;;;;9.23;7.30;;;;;;;;;;5063696;28;20251;-70
2023/05/26 05:08:56;;;;;;;10.50;7.63;;;;;;;;;;5063606;28;20222;-70
2023/05/26 05:11:23;;;;;;;8.85;7.20;;;;;;;;;;5063483;28;20256;-70
2023/05/26 05:13:51;;;;;;;11.20;8.10;;;;;;;;;;5063239;28;20204;-70
2023/05/26 05:16:17;;;;;;;15.20;8.60;;;;;;;;;;5063489;28;20197;-70
2023/05/26 05:18:44;;;;;;;13.25;8.00;;;;;;;;;;5063355;28;20429;-70
2023/05/26 05:21:10;;;;;;;14.50;8.27;;;;;;;;;;5062947;28;20193;-70
2023/05/26 05:23:36;;;;;;;13.90;8.77;;;;;;;;;;5063002;28;20269;-70
2023/05/26 05:26:02;;;;;;;12.75;8.90;;;;;;;;;;5063452;28;20235;-70
2023/05/26 05:28:29;;;;;;;14.48;8.77;;;;;;;;;;5063081;28;20252;-68
2023/05/26 05:30:57;;;;;;;13.00;7.97;;;;;;;;;;5063005;28;20528;-69
2023/05/26 05:33:23;;;;;;;12.50;8.43;;;;;;;;;;5062862;28;20259;-68
2023/05/26 05:35:49;;;;;;;10.13;8.07;;;;;;;;;;5063337;28;20551;-68
2023/05/26 05:38:15;;;;;;;14.75;8.15;;;;;;;;;;5063040;28;20255;-68
2023/05/26 05:40:42;;;;;;;9.52;7.78;;;;;;;;;;5062605;28;20193;-68
2023/05/26 05:43:08;;;;;;;12.57;7.65;;;;;;;;;;5062736;28;20197;-68
2023/05/26 05:45:34;;;;;;;11.32;7.65;;;;;;;;;;5062762;28;20227;-68
2023/05/26 05:48:02;;;;;;;13.63;7.85;;;;;;;;;;5063089;28;20200;-68
2023/05/26 05:50:28;;;;;;;12.48;7.90;;;;;;;;;;5062862;28;20207;-68
2023/05/26 05:52:54;;;;;;;8.98;7.65;;;;;;;;;;5062535;28;20627;-69
2023/05/26 05:55:20;;;;;;;12.30;7.22;;;;;;;;;;5062862;28;20502;-68
2023/05/26 05:57:47;;;;;;;10.75;7.40;;;;;;;;;;5062850;28;20197;-68
2023/05/26 06:00:14;;;;;;;9.73;7.47;;;;;;;;;;5053397;28;20524;-68
2023/05/26 06:02:40;;;;;;;7.93;6.75;;;;;;;;;;5052315;28;20528;-68
2023/05/26 06:05:08;;;;;;;21.55;7.22;;;;;;;;;;5054800;28;20205;-70
2023/05/26 06:07:34;;;;;;;11.98;7.20;;;;;;;;;;5057837;28;20439;-61
2023/05/26 06:10:01;;;;;;;9.00;6.57;;;;;;;;;;5052327;28;20209;-61
2023/05/26 06:12:27;;;;;;;14.13;7.50;;;;;;;;;;5036231;28;20221;-59
2023/05/26 06:14:53;;;;;;;16.20;7.10;;;;;;;;;;5043229;28;20228;-59
2023/05/26 06:17:20;;;;;;;12.73;7.40;;;;;;;;;;5051731;28;20209;-60
2023/05/26 06:19:46;;;;;;;13.40;7.65;;;;;;;;;;5038796;28;20214;-60
2023/05/26 06:22:13;;;;;;;9.93;6.88;;;;;;;;;;5048025;28;20229;-60
2023/05/26 06:24:40;;;;;;;12.65;7.07;;;;;;;;;;5036009;28;20439;-60
2023/05/26 06:27:06;;;;;;;11.45;7.18;;;;;;;;;;5041280;28;20294;-60
2023/05/26 06:29:32;;;;;;;9.25;7.10;;;;;;;;;;5056193;28;20768;-60
2023/05/26 06:31:58;;;;;;;13.55;7.32;;;;;;;;;;5045597;28;20410;-60
2023/05/26 06:34:25;;;;;;;8.95;6.25;;;;;;;;;;5055707;28;20606;-60
2023/05/26 06:36:51;;;;;;;11.65;6.50;;;;;;;;;;5042117;28;20236;-60
2023/05/26 06:39:18;;;;;;;10.85;6.40;;;;;;;;;;5037236;28;20280;-60
2023/05/26 06:41:45;;;;;;;8.55;6.70;;;;;;;;;;5056775;28;20267;-59
2023/05/26 06:44:11;;;;;;;10.88;6.70;;;;;;;;;;5056928;28;20217;-60
2023/05/26 06:46:37;;;;;;;11.13;6.75;;;;;;;;;;5048561;28;20520;-59
2023/05/26 06:49:04;;;;;;;9.32;6.68;;;;;;;;;;5042342;28;20219;-60
2023/05/26 06:51:30;;;;;;;10.38;6.50;;;;;;;;;;5055234;28;20220;-61
2023/05/26 06:53:56;;;;;;;14.23;7.43;;;;;;;;;;5051324;28;20260;-60
2023/05/26 06:56:24;;;;;;;12.75;7.30;;;;;;;;;;5048085;28;20216;-60
2023/05/26 06:58:50;;;;;;;6.72;6.05;;;;;;;;;;5054306;28;20233;-60
2023/05/26 07:01:17;;;;;;;12.98;7.30;;;;;;;;;;5054955;28;20251;-60
2023/05/26 07:03:44;;;;;;;13.20;6.95;;;;;;;;;;5055080;28;20242;-61
2023/05/26 07:06:11;;;;;;;10.65;6.93;;;;;;;;;;5046751;28;20298;-60
2023/05/26 07:08:37;;;;;;;14.30;6.50;;;;;;;;;;5051235;28;20260;-61
2023/05/26 07:11:03;;;;;;;9.75;6.50;;;;;;;;;;5033634;28;20487;-60
2023/05/26 07:13:31;;;;;;;12.85;7.00;;;;;;;;;;5034842;28;20218;-60
2023/05/26 07:15:57;;;;;;;10.07;6.93;;;;;;;;;;5051232;28;20568;-60
2023/05/26 07:18:23;;;;;;;8.20;6.55;;;;;;;;;;5055552;28;20213;-60
2023/05/26 07:20:50;;;;;;;10.00;6.80;;;;;;;;;;5054562;28;20213;-59
2023/05/26 07:23:16;;;;;;;10.70;7.28;;;;;;;;;;5049947;28;20213;-61
2023/05/26 07:25:42;;;;;;;16.55;6.97;;;;;;;;;;5052878;28;21175;-61
2023/05/26 07:28:08;;;;;;;8.63;6.10;;;;;;;;;;5036485;28;20257;-61
2023/05/26 07:30:36;;;;;;;10.07;6.20;;;;;;;;;;5054729;28;20217;-60
2023/05/26 07:33:02;;;;;;;12.68;6.75;;;;;;;;;;5035814;28;20233;-60
2023/05/26 07:35:29;;;;;;;12.73;7.15;;;;;;;;;;5045866;28;20446;-60
2023/05/26 07:37:55;;;;;;;9.05;6.05;;;;;;;;;;5050028;28;20213;-60
2023/05/26 07:40:21;;;;;;;12.18;6.30;;;;;;;;;;5053501;28;20217;-60
2023/05/26 07:42:48;;;;;;;9.02;6.50;;;;;;;;;;5052434;28;20254;-60
2023/05/26 07:45:14;;;;;;;12.43;6.88;;;;;;;;;;5056768;28;20213;-59
2023/05/26 07:47:42;;;;;;;11.35;6.60;;;;;;;;;;5044514;28;20230;-60
2023/05/26 07:50:08;;;;;;;12.05;6.38;;;;;;;;;;5038695;28;20213;-60
2023/05/26 07:52:35;;;;;;;10.25;6.90;;;;;;;;;;5041878;28;20276;-60
2023/05/26 07:55:01;;;;;;;11.90;6.32;;;;;;;;;;5038288;28;20296;-60
2023/05/26 07:57:27;;;;;;;11.40;6.53;;;;;;;;;;5043033;28;20470;-61
2023/05/26 07:59:53;;;;;;;9.73;6.30;;;;;;;;;;5052440;28;20216;-60
2023/05/26 08:02:20;;;;;;;11.50;6.65;;;;;;;;;;5058824;28;20209;-60
2023/05/26 08:04:47;;;;;;;8.85;6.18;;;;;;;;;;5056347;28;20273;-59
2023/05/26 08:07:14;;;;;;;11.48;6.93;;;;;;;;;;5053967;28;20310;-60
2023/05/26 08:09:40;;;;;;;11.20;6.85;;;;;;;;;;5055521;28;20235;-61
2023/05/26 08:12:07;;;;;;;8.10;6.10;;;;;;;;;;5053952;28;20222;-60
2023/05/26 08:14:33;;;;;;;11.40;6.43;;;;;;;;;;5039263;28;20217;-60
2023/05/26 08:16:59;;;;;;;11.63;7.07;;;;;;;;;;5039306;28;20209;-61
2023/05/26 08:19:26;;;;;;;11.95;6.78;;;;;;;;;;5039094;28;20218;-60
2023/05/26 08:21:53;;;;;;;11.07;6.28;;;;;;;;;;5050140;28;20294;-60
2023/05/26 08:24:22;;;;;;;13.93;7.07;;;;;;;;;;5040292;28;20413;-59
2023/05/26 08:26:49;;;;;;;8.88;6.43;;;;;;;;;;5055069;28;20225;-61
2023/05/26 08:29:15;;;;;;;16.27;7.20;;;;;;;;;;5059095;28;20209;-61
2023/05/26 08:31:41;;;;;;;11.40;6.78;;;;;;;;;;5058498;28;20455;-61
2023/05/26 08:34:08;;;;;;;13.68;6.78;;;;;;;;;;5050280;28;20511;-60
2023/05/26 08:36:35;;;;;;;9.48;6.70;;;;;;;;;;5051726;28;20308;-61
2023/05/26 08:39:03;;;;;;;10.18;6.38;;;;;;;;;;5047121;28;20279;-60
2023/05/26 08:41:34;;;;;;;8.93;6.30;;;;;;;;;;5056986;28;20219;-61
2023/05/26 08:44:02;;;;;;;7.28;5.80;;;;;;;;;;5038564;28;20241;-60
2023/05/26 08:46:30;;;;;;;11.40;6.10;;;;;;;;;;5046440;28;20210;-60
2023/05/26 08:48:57;;;;;;;10.25;6.30;;;;;;;;;;5040259;28;20390;-60
2023/05/26 08:51:24;;;;;;;7.78;6.28;;;;;;;;;;5057868;28;20213;-61
2023/05/26 08:53:50;;;;;;;10.73;7.25;;;;;;;;;;5057837;28;20239;-60
2023/05/26 08:56:18;;;;;;;14.45;6.72;;;;;;;;;;5042968;28;20208;-60
2023/05/26 08:58:45;;;;;;;15.05;6.22;;;;;;;;;;5043580;28;20413;-60
2023/05/26 09:01:11;;;;;;;9.15;6.25;;;;;;;;;;5042105;28;20219;-61
2023/05/26 09:03:38;;;;;;;14.32;6.18;;;;;;;;;;5058160;28;20205;-60
2023/05/26 09:06:04;;;;;;;7.18;6.10;;;;;;;;;;5043465;28;20385;-59
2023/05/26 09:08:31;;;;;;;10.57;5.65;;;;;;;;;;5056049;28;20418;-61
2023/05/26 09:10:57;;;;;;;13.55;6.18;;;;;;;;;;5057859;28;20425;-61
2023/05/26 09:13:26;;;;;;;10.65;6.40;;;;;;;;;;5056950;28;20225;-61
2023/05/26 09:15:52;;;;;;;13.13;6.57;;;;;;;;;;5037443;28;20469;-60
2023/05/26 09:18:19;;;;;;;9.50;6.10;;;;;;;;;;5046339;28;20213;-60
2023/05/26 09:20:46;;;;;;;9.25;5.95;;;;;;;;;;5057176;28;20213;-60
2023/05/26 09:23:13;;;;;;;10.27;6.10;;;;;;;;;;5054440;28;20250;-61
2023/05/26 09:25:40;;;;;;;9.27;6.68;;;;;;;;;;5044848;28;20264;-60
2023/05/26 09:28:07;;;;;;;9.63;5.95;;;;;;;;;;5057780;28;20237;-60
2023/05/26 09:30:38;;;;;;;8.95;5.95;;;;;;;;;;5057685;28;20246;-61
2023/05/26 09:33:05;;;;;;;11.43;6.00;;;;;;;;;;5051953;28;20230;-60
2023/05/26 09:35:35;;;;;;;11.63;5.45;;;;;;;;;;5052757;28;20225;-61
2023/05/26 09:38:03;;;;;;;8.80;5.90;;;;;;;;;;5040607;28;20208;-60
2023/05/26 09:40:29;;;;;;;11.73;6.32;;;;;;;;;;5050634;28;20220;-60
2023/05/26 09:42:55;;;;;;;13.75;6.13;;;;;;;;;;5056899;28;20436;-60
2023/05/26 09:45:22;;;;;;;9.77;5.70;;;;;;;;;;5057457;28;20308;-60
2023/05/26 09:47:53;;;;;;;11.10;5.63;;;;;;;;;;5045038;28;20713;-60
2023/05/26 09:50:19;;;;;;;13.57;5.65;;;;;;;;;;5042831;28;20205;-61
2023/05/26 09:52:47;;;;;;;11.65;5.88;;;;;;;;;;5045333;28;20575;-60
2023/05/26 09:55:13;;;;;;;7.60;6.13;;;;;;;;;;5057287;28;20433;-61
2023/05/26 09:57:40;;;;;;;12.27;5.90;;;;;;;;;;5055193;28;20512;-61
2023/05/26 10:00:09;;;;;;;13.05;6.30;;;;;;;;;;5049929;28;20456;-61
2023/05/26 10:02:36;;;;;;;10.93;5.72;;;;;;;;;;5036643;28;20565;-60
2023/05/26 10:05:05;;;;;;;9.02;5.18;;;;;;;;;;5038902;28;20213;-60
2023/05/26 10:07:31;;;;;;;11.25;6.22;;;;;;;;;;5055561;28;20236;-60
2023/05/26 10:09:58;;;;;;;13.65;5.97;;;;;;;;;;5055870;28;20258;-61
2023/05/26 10:12:27;;;;;;;9.15;6.05;;;;;;;;;;5052822;28;20225;-60
2023/05/26 10:14:53;;;;;;;9.70;6.32;;;;;;;;;;5037445;28;20221;-59
2023/05/26 10:17:19;;;;;;;10.43;5.38;;;;;;;;;;5037126;28;20240;-61
2023/05/26 10:19:46;;;;;;;9.07;6.18;;;;;;;;;;5054919;28;20212;-60
2023/05/26 10:22:17;;;;;;;13.07;5.95;;;;;;;;;;5056405;28;20219;-59
2023/05/26 10:24:45;;;;;;;12.27;5.85;;;;;;;;;;5056262;28;20212;-61
2023/05/26 10:27:17;;;;;;;11.15;5.85;;;;;;;;;;5056128;28;20236;-59
2023/05/26 10:29:46;;;;;;;11.75;5.95;;;;;;;;;;5056365;28;20224;-61
2023/05/26 10:32:27;;;;;;;10.57;5.20;;;;;;;;;;5057387;28;20449;-59
2023/05/26 10:34:53;;;;;;;11.27;5.80;;;;;;;;;;5049466;28;20204;-59
2023/05/26 10:37:20;;;;;;;10.93;6.05;;;;;;;;;;5050894;28;20213;-60
2023/05/26 10:39:47;;;;;;;9.25;5.63;;;;;;;;;;5036826;28;20220;-60
2023/05/26 10:42:17;;;;;;;7.40;5.30;;;;;;;;;;5036543;28;20330;-61
2023/05/26 10:44:45;;;;;;;10.18;5.85;;;;;;;;;;5036307;28;20213;-60
2023/05/26 10:47:14;;;;;;;11.18;5.93;;;;;;;;;;5035421;28;20213;-60
2023/05/26 10:49:40;;;;;;;11.38;5.85;;;;;;;;;;5051790;28;20212;-60
2023/05/26 10:52:11;;;;;;;12.65;6.28;;;;;;;;;;5055778;28;20200;-60
2023/05/26 10:54:39;;;;;;;10.07;5.10;;;;;;;;;;5056266;28;20213;-60
2023/05/26 10:57:06;;;;;;;10.02;5.68;;;;;;;;;;5055779;28;20216;-61
2023/05/26 10:59:34;;;;;;;10.65;5.45;;;;;;;;;;5042349;28;20213;-60
2023/05/26 11:02:02;;;;;;;11.18;5.40;;;;;;;;;;5056205;28;20216;-60
2023/05/26 11:04:39;;;;;;;9.70;5.22;;;;;;;;;;5054117;28;20216;-60
2023/05/26 11:07:14;;;;;;;10.65;5.65;;;;;;;;;;5052909;28;20212;-60
2023/05/26 11:09:55;;;;;;;10.02;6.20;;;;;;;;;;5037077;28;20201;-60
2023/05/26 11:12:21;;;;;;;9.40;5.93;;;;;;;;;;5036210;28;20496;-60
2023/05/26 11:14:47;;;;;;;10.77;6.47;;;;;;;;;;5035399;28;20590;-61
2023/05/26 11:17:14;;;;;;;11.13;5.68;;;;;;;;;;5036121;28;20210;-61
2023/05/26 11:19:40;;;;;;;10.27;6.40;;;;;;;;;;5047108;28;20212;-61
2023/05/26 11:22:08;;;;;;;9.55;5.72;;;;;;;;;;5059658;28;20216;-60
2023/05/26 11:24:35;;;;;;;10.93;5.90;;;;;;;;;;5041419;28;20201;-59
2023/05/26 11:27:03;;;;;;;10.43;5.70;;;;;;;;;;5038261;28;20213;-60
2023/05/26 11:29:30;;;;;;;12.30;5.57;;;;;;;;;;5039232;28;20213;-60
2023/05/26 11:31:56;;;;;;;9.93;5.20;;;;;;;;;;5039955;28;20225;-60
2023/05/26 11:34:23;;;;;;;11.60;5.40;;;;;;;;;;5039205;28;20320;-61
2023/05/26 11:36:51;;;;;;;11.95;5.43;;;;;;;;;;5058088;28;20591;-61
2023/05/26 11:39:18;;;;;;;8.82;5.40;;;;;;;;;;5060388;28;20228;-60
2023/05/26 11:41:45;;;;;;;9.48;5.88;;;;;;;;;;5060092;28;20258;-60
2023/05/26 11:44:13;;;;;;;10.65;5.38;;;;;;;;;;5058437;28;20208;-60
2023/05/26 11:46:40;;;;;;;7.97;5.40;;;;;;;;;;5052371;28;20221;-59
2023/05/26 11:49:11;;;;;;;10.00;5.43;;;;;;;;;;5039407;28;20220;-61
2023/05/26 11:51:37;;;;;;;10.27;5.68;;;;;;;;;;5039474;28;20292;-60
2023/05/26 11:54:08;;;;;;;7.72;5.30;;;;;;;;;;5039299;28;20580;-60
2023/05/26 11:56:35;;;;;;;9.98;5.32;;;;;;;;;;5044247;28;20438;-60
2023/05/26 11:59:01;;;;;;;7.70;4.93;;;;;;;;;;5043613;28;20213;-61
2023/05/26 12:01:30;;;;;;;10.93;5.43;;;;;;;;;;5050310;28;20204;-61
2023/05/26 12:03:59;;;;;;;10.07;5.32;;;;;;;;;;5055879;28;20200;-60
2023/05/26 12:06:26;;;;;;;7.70;5.10;;;;;;;;;;5038566;28;20309;-61
2023/05/26 12:08:52;;;;;;;11.95;5.13;;;;;;;;;;5048828;28;20432;-60
2023/05/26 12:11:20;;;;;;;6.47;5.15;;;;;;;;;;5039943;28;20282;-61
2023/05/26 12:13:47;;;;;;;9.38;4.85;;;;;;;;;;5039564;28;20256;-61
2023/05/26 12:16:28;;;;;;;9.15;5.20;;;;;;;;;;5039556;28;20217;-61
2023/05/26 12:18:57;;;;;;;8.23;4.90;;;;;;;;;;5043412;28;20278;-60
2023/05/26 12:21:23;;;;;;;9.07;4.82;;;;;;;;;;5059290;28;20383;-61
2023/05/26 12:23:50;;;;;;;11.60;5.38;;;;;;;;;;5052448;28;20236;-61
2023/05/26 12:26:17;;;;;;;6.78;5.20;;;;;;;;;;5054066;28;20240;-61
2023/05/26 12:28:44;;;;;;;9.25;4.80;;;;;;;;;;5058498;28;20476;-61
2023/05/26 12:31:10;;;;;;;10.05;5.47;;;;;;;;;;5057371;28;20205;-61
2023/05/26 12:33:36;;;;;;;7.32;5.00;;;;;;;;;;5058284;28;20274;-60
2023/05/26 12:36:05;;;;;;;9.30;5.22;;;;;;;;;;5050361;28;20452;-61
2023/05/26 12:38:39;;;;;;;8.70;4.43;;;;;;;;;;5057753;28;20212;-61
2023/05/26 12:41:06;;;;;;;6.60;4.72;;;;;;;;;;5052029;28;20576;-60
2023/05/26 12:43:32;;;;;;;9.05;4.78;;;;;;;;;;5038610;28;20213;-60
2023/05/26 12:45:58;;;;;;;7.60;4.47;;;;;;;;;;5038846;28;20567;-60
2023/05/26 12:48:24;;;;;;;5.15;4.40;;;;;;;;;;5037932;28;20256;-60
2023/05/26 12:50:51;;;;;;;8.90;4.70;;;;;;;;;;5046600;28;20212;-61
2023/05/26 12:53:18;;;;;;;8.50;5.20;;;;;;;;;;5058563;28;20224;-61
2023/05/26 12:55:44;;;;;;;6.57;4.80;;;;;;;;;;5050496;28;20205;-61
2023/05/26 12:58:11;;;;;;;7.95;4.70;;;;;;;;;;5050000;28;20204;-61
2023/05/26 13:00:37;;;;;;;5.93;4.78;;;;;;;;;;5051520;28;20272;-61
2023/05/26 13:03:03;;;;;;;9.57;5.10;;;;;;;;;;5043932;28;20499;-60
2023/05/26 13:05:30;;;;;;;7.75;5.03;;;;;;;;;;5043943;28;20217;-60
2023/05/26 13:07:56;;;;;;;4.90;4.50;;;;;;;;;;5052183;28;20274;-61
2023/05/26 13:10:24;;;;;;;7.97;4.72;;;;;;;;;;5057172;28;20212;-61
2023/05/26 13:12:50;;;;;;;9.65;5.13;;;;;;;;;;5042248;28;20214;-60
2023/05/26 13:15:17;;;;;;;6.78;4.63;;;;;;;;;;5037418;28;20599;-61
2023/05/26 13:17:43;;;;;;;8.63;4.88;;;;;;;;;;5037200;28;20236;-61
2023/05/26 13:20:10;;;;;;;9.18;4.40;;;;;;;;;;5037074;28;20253;-61
2023/05/26 13:22:38;;;;;;;6.18;4.60;;;;;;;;;;5036650;28;20278;-61
2023/05/26 13:25:04;;;;;;;9.32;4.63;;;;;;;;;;5037038;28;20201;-61
2023/05/26 13:27:32;;;;;;;8.00;5.13;;;;;;;;;;5053640;28;20236;-61
2023/05/26 13:29:58;;;;;;;6.70;4.90;;;;;;;;;;5056364;28;20213;-60
2023/05/26 13:32:24;;;;;;;8.40;4.68;;;;;;;;;;5057270;28;20204;-60
2023/05/26 13:34:50;;;;;;;8.18;4.85;;;;;;;;;;5054421;28;20585;-62
2023/05/26 13:37:17;;;;;;;9.68;4.90;;;;;;;;;;5037789;28;20299;-61
2023/05/26 13:39:43;;;;;;;7.28;4.88;;;;;;;;;;5044144;28;20213;-61
2023/05/26 13:42:09;;;;;;;6.47;4.72;;;;;;;;;;5056448;28;20212;-61
2023/05/26 13:44:37;;;;;;;8.88;4.65;;;;;;;;;;5057322;28;20211;-62
2023/05/26 13:47:03;;;;;;;8.15;4.70;;;;;;;;;;5057340;28;20208;-60
2023/05/26 13:49:29;;;;;;;7.30;4.60;;;;;;;;;;5043244;28;20474;-61
2023/05/26 13:52:01;;;;;;;5.70;4.47;;;;;;;;;;5038739;28;20220;-61
2023/05/26 13:54:28;;;;;;;5.72;4.57;;;;;;;;;;5056924;28;20225;-61
2023/05/26 13:56:54;;;;;;;5.95;4.50;;;;;;;;;;5056955;28;20217;-61
2023/05/26 13:59:20;;;;;;;6.57;4.93;;;;;;;;;;5048433;28;20209;-61
2023/05/26 14:01:48;;;;;;;6.65;4.78;;;;;;;;;;5036498;28;20270;-61
2023/05/26 14:04:14;;;;;;;5.22;4.68;;;;;;;;;;5054816;28;20205;-63
2023/05/26 14:06:40;;;;;;;5.90;4.60;;;;;;;;;;5062844;28;20242;-61
2023/05/26 14:09:07;;;;;;;7.18;4.57;;;;;;;;;;5054496;28;20234;-61
2023/05/26 14:11:34;;;;;;;6.03;4.32;;;;;;;;;;5058029;28;20528;-60
2023/05/26 14:14:00;;;;;;;5.97;4.60;;;;;;;;;;5057823;28;20240;-61
2023/05/26 14:16:26;;;;;;;6.95;4.57;;;;;;;;;;5058278;28;20240;-60
2023/05/26 14:18:54;;;;;;;5.90;4.43;;;;;;;;;;5058336;28;20540;-61
2023/05/26 14:21:21;;;;;;;5.47;4.22;;;;;;;;;;5058106;28;20595;-60
2023/05/26 14:23:47;;;;;;;7.35;4.40;;;;;;;;;;5058119;28;20201;-61
2023/05/26 14:26:14;;;;;;;5.43;4.07;;;;;;;;;;5058366;28;20451;-61
2023/05/26 14:28:40;;;;;;;9.38;4.55;;;;;;;;;;5057792;28;20598;-61
2023/05/26 14:31:06;;;;;;;6.72;4.57;;;;;;;;;;5062609;28;20247;-61
2023/05/26 14:33:33;;;;;;;5.72;4.47;;;;;;;;;;5061946;28;20524;-61
2023/05/26 14:36:00;;;;;;;7.25;4.13;;;;;;;;;;5061990;28;20205;-61
2023/05/26 14:38:26;;;;;;;4.90;4.40;;;;;;;;;;5061955;28;20208;-61
2023/05/26 14:40:53;;;;;;;9.63;4.47;;;;;;;;;;5061916;28;20200;-61